CGWXV CYXU-CYXU
Flight info
| Callsign | CGWXV |
|---|---|
| Flight time | 0h 3m |
| Altitude | 3000 |
| Route | VFR TRANS NORTH THORNDALE |
| Aircraft | C172 |
Departure
| Time | 2026-04-21 00:25 |
|---|---|
| Airport | London International Airport (CYXU) |
Arrival
| Time | 2026-04-21 00:29 |
|---|---|
| Airport | London International Airport (CYXU) |
| Time | Latitude | Longitude | Altitude | Speed | Heading |
|---|---|---|---|---|---|
| 2026-04-21 00:25 | 42.97279 | -81.07572 | 2542 ft | 88 kts | 316° |
| 2026-04-21 00:25 | 42.97724 | -81.08144 | 2401 ft | 89 kts | 316° |
| 2026-04-21 00:25 | 42.98186 | -81.08719 | 2255 ft | 88 kts | 314° |
| 2026-04-21 00:26 | 42.98616 | -81.09281 | 2150 ft | 81 kts | 319° |
| 2026-04-21 00:26 | 42.99024 | -81.09762 | 2053 ft | 77 kts | 318° |
| 2026-04-21 00:26 | 42.99419 | -81.10245 | 1921 ft | 75 kts | 314° |
| 2026-04-21 00:26 | 42.99788 | -81.10706 | 1810 ft | 63 kts | 320° |
| 2026-04-21 00:27 | 43.00102 | -81.11064 | 1667 ft | 61 kts | 317° |
| 2026-04-21 00:27 | 43.00422 | -81.11453 | 1532 ft | 61 kts | 314° |
| 2026-04-21 00:27 | 43.00744 | -81.11824 | 1424 ft | 58 kts | 318° |
| 2026-04-21 00:27 | 43.01046 | -81.12191 | 1335 ft | 59 kts | 315° |
| 2026-04-21 00:28 | 43.01352 | -81.12562 | 1261 ft | 59 kts | 316° |
| 2026-04-21 00:28 | 43.01662 | -81.12930 | 1193 ft | 58 kts | 317° |
| 2026-04-21 00:28 | 43.01976 | -81.13306 | 1092 ft | 61 kts | 319° |
| 2026-04-21 00:28 | 43.02303 | -81.13693 | 984 ft | 61 kts | 319° |
| 2026-04-21 00:29 | 43.02605 | -81.14057 | 911 ft | 50 kts | 320° |
| 2026-04-21 00:29 | 43.02812 | -81.14305 | 906 ft | 32 kts | 319° |
| 2026-04-21 00:29 | 43.02944 | -81.14472 | 905 ft | 17 kts | 291° |
| 2026-04-21 00:29 | 43.02928 | -81.14606 | 904 ft | 11 kts | 230° |
| 2026-04-21 00:30 | 43.02885 | -81.14676 | 904 ft | 8 kts | 253° |
| 2026-04-21 00:30 | 43.02920 | -81.14752 | 903 ft | 12 kts | 320° |
| 2026-04-21 00:30 | 43.02996 | -81.14842 | 903 ft | 16 kts | 318° |
| 2026-04-21 00:30 | 43.03077 | -81.14938 | 904 ft | 14 kts | 319° |
| 2026-04-21 00:31 | 43.03150 | -81.15025 | 904 ft | 13 kts | 318° |
| 2026-04-21 00:31 | 43.03216 | -81.15105 | 905 ft | 13 kts | 318° |
| 2026-04-21 00:31 | 43.03267 | -81.15180 | 906 ft | 6 kts | 258° |
| 2026-04-21 00:31 | 43.03235 | -81.15229 | 905 ft | 9 kts | 231° |
| 2026-04-21 00:32 | 43.03205 | -81.15278 | 905 ft | 6 kts | 195° |
| 2026-04-21 00:32 | 43.03184 | -81.15256 | 905 ft | 1 kts | 101° |
| 2026-04-21 00:32 | 43.03186 | -81.15251 | 905 ft | 0 kts | 9° |
| 2026-04-21 00:32 | 43.03190 | -81.15254 | 905 ft | 0 kts | 317° |